Vac, Hungary
Current Conditions -  °F | °C
As of 3:30 AM on Tuesday 25 Nov 2014 (Local Time) from LHBP Reporting Station
Light Rain Light Rain  
Wind Chill: 31°   Ceiling: 2900
Heat Index: 37°   Visibility: 4mi
Dew Point: 36°   Wind: 8mph
Humidity: 93%   Direction: 90°E
Pressure: 30.39"   Gusts: NA
Location:  47.79°N, 19.13°E
Report Text: LHBP 250130Z 09007KT 6000 -RA FEW008 BKN029 03/02 Q1029 NOSIG
Loading
Personal Weather Stations






























Interactive Weather Map New forecast layout! Learn more

10-Day Weather Forecast

Advertisements
Track Severe Weather on mobile